Terminal Aerodrome Forecast
Issued by NWS North Platte, NE

Home | Current Version | Previous Version | Graphics & Text | Print | Product List | Glossary On
Versions: 1 2 3 4 5 6 7 8 9 10 11 12 13 14 15 16 17 18 19 20
000
FTUS43 KLBF 152300
TAFVTN
TAF
KVTN 152324Z 1600/1624 14018KT P6SM SCT110
     FM160200 14015G23KT P6SM OVC030
      TEMPO 1605/1608 P6SM -SHRA OVC020
     FM161000 10007KT P6SM -SHRA SCT007 OVC015=

USA.gov is the U.S. government's official web portal to all federal, state and local government web resources and services.